createdAt,value
2023-02-23T03:59:06.214Z,1006.09
2023-02-23T04:00:06.116Z,1006.13
2023-02-23T04:01:06.092Z,1006.11
2023-02-23T04:02:06.108Z,1006.12
2023-02-23T04:03:06.075Z,1006.16
2023-02-23T04:04:06.069Z,1006.14
2023-02-23T04:05:06.073Z,1006.16
2023-02-23T04:06:06.059Z,1006.14
2023-02-23T04:07:06.057Z,1006.10
2023-02-23T04:08:06.059Z,1006.14
2023-02-23T04:09:06.035Z,1006.15
2023-02-23T04:10:06.034Z,1006.10
2023-02-23T04:11:06.024Z,1006.11
2023-02-23T04:12:06.027Z,1006.13
2023-02-23T04:13:06.010Z,1006.12
2023-02-23T04:14:06.007Z,1006.12
2023-02-23T04:15:06.014Z,1006.12
2023-02-23T04:16:06.000Z,1006.15
2023-02-23T04:17:06.031Z,1006.12
2023-02-23T04:18:05.988Z,1006.11
2023-02-23T04:19:05.981Z,1006.13
2023-02-23T04:20:05.986Z,1006.16
2023-02-23T04:21:06.074Z,1006.15
2023-02-23T04:22:05.986Z,1006.18
2023-02-23T04:23:05.969Z,1006.17
2023-02-23T04:24:05.971Z,1006.19
2023-02-23T04:25:05.962Z,1006.19
2023-02-23T04:26:05.966Z,1006.20
2023-02-23T04:27:05.954Z,1006.18
2023-02-23T04:28:05.940Z,1006.22
2023-02-23T04:29:05.946Z,1006.22
2023-02-23T04:30:05.934Z,1006.20
2023-02-23T04:31:06.084Z,1006.22
2023-02-23T04:32:06.088Z,1006.21
2023-02-23T04:33:05.920Z,1006.22
2023-02-23T04:34:06.126Z,1006.25
2023-02-23T04:35:05.924Z,1006.21
2023-02-23T04:36:05.934Z,1006.20
2023-02-23T04:37:05.906Z,1006.18
2023-02-23T04:38:05.925Z,1006.19
2023-02-23T04:39:05.899Z,1006.22
2023-02-23T04:40:05.910Z,1006.24
2023-02-23T04:41:05.905Z,1006.19
2023-02-23T04:42:05.886Z,1006.22
2023-02-23T04:43:05.891Z,1006.22
2023-02-23T04:44:05.883Z,1006.23
2023-02-23T04:45:05.892Z,1006.24
2023-02-23T04:46:05.932Z,1006.23
2023-02-23T04:47:05.883Z,1006.21
2023-02-23T04:48:05.881Z,1006.22
2023-02-23T04:49:05.859Z,1006.22
2023-02-23T04:50:05.872Z,1006.22
2023-02-23T04:51:05.871Z,1006.26
2023-02-23T04:52:05.843Z,1006.25
2023-02-23T04:53:05.854Z,1006.23
2023-02-23T04:54:05.848Z,1006.24
2023-02-23T04:55:05.848Z,1006.24
2023-02-23T04:56:05.837Z,1006.26
2023-02-23T04:57:05.841Z,1006.28
2023-02-23T04:58:05.830Z,1006.28
2023-02-23T04:59:05.825Z,1006.22
2023-02-23T05:00:05.839Z,1006.29
2023-02-23T05:01:05.894Z,1006.29
2023-02-23T05:02:05.815Z,1006.29
2023-02-23T05:03:05.927Z,1006.28
2023-02-23T05:04:05.805Z,1006.29
2023-02-23T05:05:05.846Z,1006.28
2023-02-23T05:06:05.793Z,1006.31
2023-02-23T05:07:05.793Z,1006.34
2023-02-23T05:08:05.789Z,1006.32
2023-02-23T05:09:05.781Z,1006.31
2023-02-23T05:10:05.804Z,1006.34
2023-02-23T05:11:05.775Z,1006.33
2023-02-23T05:12:05.774Z,1006.32
2023-02-23T05:13:05.764Z,1006.37
2023-02-23T05:14:05.772Z,1006.37
2023-02-23T05:15:05.759Z,1006.40
2023-02-23T05:16:05.809Z,1006.40
2023-02-23T05:17:08.299Z,1006.38
2023-02-23T05:18:05.745Z,1006.38
2023-02-23T05:19:05.859Z,1006.40
2023-02-23T05:20:05.756Z,1006.40
2023-02-23T05:21:05.753Z,1006.43
2023-02-23T05:22:05.738Z,1006.41
2023-02-23T05:23:05.744Z,1006.38
2023-02-23T05:24:05.744Z,1006.41
2023-02-23T05:25:05.750Z,1006.39
2023-02-23T05:26:05.724Z,1006.41
2023-02-23T05:27:05.714Z,1006.43
2023-02-23T05:28:05.725Z,1006.41
2023-02-23T05:29:05.724Z,1006.40
2023-02-23T05:30:05.716Z,1006.42
2023-02-23T05:31:05.840Z,1006.43
2023-02-23T05:32:05.812Z,1006.42
2023-02-23T05:33:05.694Z,1006.43
2023-02-23T05:34:05.698Z,1006.41
2023-02-23T05:35:05.701Z,1006.39
2023-02-23T05:36:05.708Z,1006.42
2023-02-23T05:37:05.689Z,1006.39
2023-02-23T05:38:05.667Z,1006.37
2023-02-23T05:39:05.666Z,1006.36
2023-02-23T05:40:05.689Z,1006.44
2023-02-23T05:41:05.677Z,1006.40
2023-02-23T05:42:05.652Z,1006.39
2023-02-23T05:43:05.648Z,1006.39
2023-02-23T05:44:05.656Z,1006.38
2023-02-23T05:45:05.646Z,1006.37
2023-02-23T05:46:05.717Z,1006.36
2023-02-23T05:47:05.631Z,1006.37
2023-02-23T05:48:05.624Z,1006.39
2023-02-23T05:49:05.633Z,1006.38
2023-02-23T05:50:05.650Z,1006.35
2023-02-23T05:51:05.641Z,1006.35
2023-02-23T05:52:05.621Z,1006.35
2023-02-23T05:53:05.621Z,1006.36
2023-02-23T05:54:05.624Z,1006.38
2023-02-23T05:55:05.609Z,1006.35
2023-02-23T05:56:05.595Z,1006.40
2023-02-23T05:57:05.593Z,1006.38
2023-02-23T05:58:05.607Z,1006.35
2023-02-23T05:59:05.602Z,1006.34
2023-02-23T06:00:05.609Z,1006.35
2023-02-23T06:01:05.580Z,1006.39
2023-02-23T06:02:05.569Z,1006.36
2023-02-23T06:03:05.580Z,1006.37
2023-02-23T06:04:06.312Z,1006.38
2023-02-23T06:05:05.563Z,1006.41
2023-02-23T06:06:05.602Z,1006.39
2023-02-23T06:07:05.572Z,1006.38
2023-02-23T06:08:05.588Z,1006.43
2023-02-23T06:09:05.571Z,1006.43
2023-02-23T06:10:05.564Z,1006.41
2023-02-23T06:11:05.549Z,1006.40
2023-02-23T06:12:05.532Z,1006.39
2023-02-23T06:13:05.548Z,1006.40
2023-02-23T06:14:05.542Z,1006.38
2023-02-23T06:15:05.527Z,1006.38
2023-02-23T06:16:05.618Z,1006.41
2023-02-23T06:17:05.554Z,1006.40
2023-02-23T06:18:05.539Z,1006.42
2023-02-23T06:19:05.550Z,1006.41
2023-02-23T06:20:05.505Z,1006.45
2023-02-23T06:21:05.506Z,1006.46
2023-02-23T06:22:05.499Z,1006.48
2023-02-23T06:23:05.632Z,1006.48
2023-02-23T06:24:05.502Z,1006.47
2023-02-23T06:25:05.519Z,1006.46
2023-02-23T06:26:05.493Z,1006.49
2023-02-23T06:27:05.479Z,1006.48
2023-02-23T06:28:05.494Z,1006.50
2023-02-23T06:29:05.483Z,1006.50
2023-02-23T06:30:05.469Z,1006.50
2023-02-23T06:31:05.580Z,1006.52
2023-02-23T06:32:05.595Z,1006.51
2023-02-23T06:33:05.472Z,1006.54
2023-02-23T06:34:05.468Z,1006.57
2023-02-23T06:35:05.458Z,1006.56
2023-02-23T06:36:05.450Z,1006.59
2023-02-23T06:37:06.771Z,1006.61
2023-02-23T06:38:05.440Z,1006.63
2023-02-23T06:39:05.574Z,1006.63
2023-02-23T06:40:05.439Z,1006.63
2023-02-23T06:41:05.440Z,1006.68
2023-02-23T06:42:05.477Z,1006.68
2023-02-23T06:43:05.429Z,1006.70
2023-02-23T06:44:05.433Z,1006.69
2023-02-23T06:45:05.411Z,1006.73
2023-02-23T06:46:05.422Z,1006.73
2023-02-23T06:47:05.422Z,1006.75
2023-02-23T06:48:05.436Z,1006.74
2023-02-23T06:50:05.448Z,1006.80
2023-02-23T06:51:05.398Z,1006.81
2023-02-23T06:54:38.529Z,1006.85
2023-02-23T06:55:38.431Z,1006.87
2023-02-23T06:56:38.457Z,1006.86
2023-02-23T06:57:38.456Z,1006.89
2023-02-23T06:58:38.446Z,1006.87
2023-02-23T06:59:38.429Z,1006.87
2023-02-23T07:00:38.409Z,1006.89
2023-02-23T07:01:38.591Z,1006.90
2023-02-23T07:02:38.428Z,1006.88
2023-02-23T07:03:38.458Z,1006.86
2023-02-23T07:04:38.395Z,1006.85
2023-02-23T07:05:38.396Z,1006.88
2023-02-23T07:06:38.392Z,1006.90
2023-02-23T07:07:38.461Z,1006.89
2023-02-23T07:08:38.396Z,1006.89
2023-02-23T07:09:38.433Z,1006.92
2023-02-23T07:10:38.421Z,1006.93
2023-02-23T07:11:38.373Z,1006.94
2023-02-23T07:12:38.393Z,1006.93
2023-02-23T07:13:38.373Z,1006.97
2023-02-23T07:14:38.374Z,1006.93
2023-02-23T07:15:38.367Z,1006.96
2023-02-23T07:16:38.409Z,1006.99
2023-02-23T07:18:38.343Z,1007.00
2023-02-23T07:19:38.365Z,1006.97
2023-02-23T07:20:38.333Z,1007.01
2023-02-23T07:21:38.332Z,1007.02
2023-02-23T07:22:39.875Z,1007.06
2023-02-23T07:23:38.345Z,1007.02
2023-02-23T07:24:38.314Z,1007.06
2023-02-23T07:25:38.310Z,1007.06
2023-02-23T07:26:38.326Z,1007.06
2023-02-23T07:27:38.357Z,1007.05
2023-02-23T07:28:38.335Z,1007.06
2023-02-23T07:29:38.326Z,1007.06
2023-02-23T07:30:38.299Z,1007.06
2023-02-23T07:31:38.369Z,1007.06
2023-02-23T07:32:38.368Z,1007.10
2023-02-23T07:33:38.304Z,1007.09
2023-02-23T07:34:38.297Z,1007.14
2023-02-23T07:35:38.281Z,1007.12
2023-02-23T07:36:38.283Z,1007.12
2023-02-23T07:37:38.319Z,1007.12
2023-02-23T07:39:38.328Z,1007.13
2023-02-23T07:40:38.274Z,1007.12
2023-02-23T07:41:38.280Z,1007.14
2023-02-23T07:42:38.371Z,1007.16
2023-02-23T07:43:38.250Z,1007.19
2023-02-23T07:44:38.270Z,1007.21
2023-02-23T07:45:38.303Z,1007.15
2023-02-23T07:46:38.273Z,1007.22
2023-02-23T07:47:38.257Z,1007.17
2023-02-23T07:48:38.250Z,1007.22
2023-02-23T07:49:38.273Z,1007.23
2023-02-23T07:50:38.238Z,1007.23
2023-02-23T07:51:38.228Z,1007.22
2023-02-23T07:52:38.237Z,1007.23
2023-02-23T07:53:38.218Z,1007.20
2023-02-23T07:54:38.220Z,1007.25
2023-02-23T07:55:38.225Z,1007.23
2023-02-23T07:56:38.211Z,1007.26
2023-02-23T07:57:38.215Z,1007.26
2023-02-23T07:58:38.243Z,1007.28
2023-02-23T07:59:38.195Z,1007.27
2023-02-23T08:00:38.190Z,1007.30
2023-02-23T08:01:38.198Z,1007.27
2023-02-23T08:02:38.193Z,1007.32
2023-02-23T08:03:38.187Z,1007.30
2023-02-23T08:04:38.220Z,1007.33
2023-02-23T08:05:38.172Z,1007.32
2023-02-23T08:06:38.166Z,1007.34
2023-02-23T08:07:38.179Z,1007.38
2023-02-23T08:08:38.204Z,1007.39
2023-02-23T08:09:38.271Z,1007.38
2023-02-23T08:11:38.150Z,1007.38
2023-02-23T08:12:38.205Z,1007.39
2023-02-23T08:13:38.147Z,1007.36
2023-02-23T08:14:38.186Z,1007.40
2023-02-23T08:15:38.139Z,1007.41
2023-02-23T08:16:38.194Z,1007.42
2023-02-23T08:17:38.147Z,1007.43
2023-02-23T08:18:38.169Z,1007.40
2023-02-23T08:20:38.126Z,1007.41
2023-02-23T08:21:38.150Z,1007.45
2023-02-23T08:22:49.020Z,1007.45
2023-02-23T08:23:38.142Z,1007.43
2023-02-23T08:24:38.178Z,1007.45
2023-02-23T08:25:38.140Z,1007.47
2023-02-23T08:26:38.130Z,1007.50
2023-02-23T08:27:38.112Z,1007.48
2023-02-23T08:28:38.083Z,1007.47
2023-02-23T08:29:38.092Z,1007.48
2023-02-23T08:30:38.256Z,1007.46
2023-02-23T08:31:39.287Z,1007.47
2023-02-23T08:32:38.277Z,1007.48
2023-02-23T08:33:38.234Z,1007.49
2023-02-23T08:34:38.109Z,1007.50
2023-02-23T08:35:38.062Z,1007.51
2023-02-23T08:36:38.133Z,1007.54
2023-02-23T08:37:38.082Z,1007.49
2023-02-23T08:38:38.064Z,1007.52
2023-02-23T08:39:38.063Z,1007.49
2023-02-23T08:40:38.164Z,1007.49
2023-02-23T08:41:38.052Z,1007.50
2023-02-23T08:42:38.057Z,1007.48
2023-02-23T08:43:38.056Z,1007.50
2023-02-23T08:44:38.025Z,1007.49
2023-02-23T08:45:38.076Z,1007.48
2023-02-23T08:46:38.058Z,1007.48
2023-02-23T08:47:38.112Z,1007.52
2023-02-23T08:51:11.056Z,1007.53
2023-02-23T08:52:33.172Z,1007.54
2023-02-23T08:53:11.042Z,1007.54
2023-02-23T08:54:11.152Z,1007.55
2023-02-23T08:55:11.121Z,1007.54
2023-02-23T08:56:11.056Z,1007.54
2023-02-23T08:57:12.586Z,1007.53
2023-02-23T08:58:11.066Z,1007.54
2023-02-23T08:59:11.020Z,1007.53
2023-02-23T09:00:11.044Z,1007.54
2023-02-23T09:01:11.039Z,1007.53
2023-02-23T09:02:11.035Z,1007.51
2023-02-23T09:03:11.018Z,1007.55
2023-02-23T09:04:11.006Z,1007.53
2023-02-23T09:05:11.015Z,1007.56
2023-02-23T09:06:11.012Z,1007.57
2023-02-23T09:07:10.989Z,1007.59
2023-02-23T09:08:11.034Z,1007.58
2023-02-23T09:09:10.982Z,1007.58
2023-02-23T09:10:11.097Z,1007.59
2023-02-23T09:11:11.015Z,1007.60
2023-02-23T09:13:10.993Z,1007.60
2023-02-23T09:14:10.994Z,1007.61
2023-02-23T09:15:10.967Z,1007.63
2023-02-23T09:16:11.084Z,1007.61
2023-02-23T09:17:10.951Z,1007.61
2023-02-23T09:18:11.038Z,1007.63
2023-02-23T09:19:10.944Z,1007.62
2023-02-23T09:20:10.948Z,1007.62
2023-02-23T09:21:10.954Z,1007.64
2023-02-23T09:22:10.970Z,1007.64
2023-02-23T09:23:11.098Z,1007.65
2023-02-23T09:24:10.930Z,1007.70
2023-02-23T09:25:10.940Z,1007.70
2023-02-23T09:27:10.977Z,1007.71
2023-02-23T09:28:10.947Z,1007.69
2023-02-23T09:29:10.912Z,1007.70
2023-02-23T09:30:10.915Z,1007.71
2023-02-23T09:31:10.971Z,1007.74
2023-02-23T09:32:11.158Z,1007.69
2023-02-23T09:33:10.911Z,1007.74
2023-02-23T09:34:12.158Z,1007.72
2023-02-23T09:35:10.894Z,1007.76
2023-02-23T09:36:10.905Z,1007.75
2023-02-23T09:37:10.915Z,1007.78
2023-02-23T09:39:10.891Z,1007.76
2023-02-23T09:40:10.891Z,1007.79
2023-02-23T09:41:11.013Z,1007.77
2023-02-23T09:42:10.868Z,1007.75
2023-02-23T09:43:10.943Z,1007.77
2023-02-23T09:45:10.856Z,1007.79
2023-02-23T09:46:10.938Z,1007.80
2023-02-23T09:48:10.946Z,1007.80
2023-02-23T09:49:10.853Z,1007.83
2023-02-23T09:50:10.874Z,1007.80
2023-02-23T09:51:10.847Z,1007.85
2023-02-23T09:52:10.834Z,1007.84
2023-02-23T09:53:10.841Z,1007.83
2023-02-23T09:54:10.861Z,1007.84
2023-02-23T09:55:10.922Z,1007.89
2023-02-23T09:56:10.842Z,1007.88
2023-02-23T09:57:10.909Z,1007.93
2023-02-23T09:58:10.857Z,1007.89
2023-02-23T09:59:10.836Z,1007.93
2023-02-23T10:00:10.818Z,1007.92
2023-02-23T10:01:10.846Z,1007.92
2023-02-23T10:02:10.818Z,1007.95
2023-02-23T10:13:26.935Z,1007.97
2023-02-23T10:14:26.913Z,1007.94
2023-02-23T10:15:26.907Z,1007.97
2023-02-23T10:16:26.910Z,1007.96
2023-02-23T10:17:26.866Z,1007.99
2023-02-23T10:18:40.632Z,1007.98
2023-02-23T10:19:26.918Z,1007.99
2023-02-23T10:20:26.973Z,1008.06
2023-02-23T10:21:26.842Z,1008.05
2023-02-23T10:22:26.872Z,1007.99
2023-02-23T10:23:26.882Z,1008.01
2023-02-23T10:24:26.859Z,1008.04
2023-02-23T10:25:26.884Z,1008.07
2023-02-23T10:26:26.937Z,1008.04
2023-02-23T10:27:27.124Z,1008.06
2023-02-23T10:28:26.806Z,1008.02
2023-02-23T10:29:26.939Z,1008.02
2023-02-23T10:30:26.958Z,1008.04
2023-02-23T10:31:27.066Z,1008.02
2023-02-23T10:32:26.897Z,1008.04
2023-02-23T10:33:26.948Z,1008.02
2023-02-23T10:34:26.873Z,1008.04
2023-02-23T10:35:27.530Z,1008.00
2023-02-23T10:36:27.409Z,1008.01
2023-02-23T10:37:27.610Z,1008.00
2023-02-23T10:38:27.599Z,1008.01
2023-02-23T10:39:29.762Z,1007.98
2023-02-23T10:40:26.873Z,1008.00
2023-02-23T10:41:27.697Z,1008.00
2023-02-23T10:42:26.865Z,1008.01
2023-02-23T10:43:26.914Z,1007.98
2023-02-23T10:44:26.764Z,1008.00
2023-02-23T10:46:26.798Z,1008.00
2023-02-23T10:47:28.628Z,1007.99
2023-02-23T10:48:26.854Z,1007.96
2023-02-23T10:49:26.967Z,1007.96
2023-02-23T10:50:27.518Z,1007.99
2023-02-23T10:51:26.994Z,1007.95
2023-02-23T10:52:26.720Z,1007.96
2023-02-23T10:53:26.807Z,1008.00
2023-02-23T10:54:27.315Z,1007.97
2023-02-23T10:55:26.711Z,1007.99
2023-02-23T10:57:26.751Z,1007.99
2023-02-23T10:59:26.754Z,1007.95
2023-02-23T11:00:26.710Z,1007.98
2023-02-23T11:01:26.761Z,1007.97
2023-02-23T11:02:26.781Z,1008.01
2023-02-23T11:03:26.691Z,1007.95
2023-02-23T11:04:26.719Z,1007.95
2023-02-23T11:05:27.062Z,1007.96
2023-02-23T11:06:26.882Z,1007.98
2023-02-23T11:07:26.739Z,1007.98
2023-02-23T11:08:27.249Z,1008.03
2023-02-23T11:09:41.741Z,1008.01
2023-02-23T11:10:27.444Z,1008.00
2023-02-23T11:11:26.674Z,1008.02
2023-02-23T11:13:26.648Z,1008.02
2023-02-23T11:14:26.685Z,1008.02
2023-02-23T11:15:38.920Z,1008.01
2023-02-23T11:17:26.740Z,1008.01
2023-02-23T11:18:26.658Z,1008.00
2023-02-23T11:19:26.630Z,1008.01
2023-02-23T11:20:26.638Z,1007.99
2023-02-23T11:21:26.668Z,1007.98
2023-02-23T11:22:26.666Z,1008.01
2023-02-23T11:23:26.664Z,1008.00
2023-02-23T11:24:26.610Z,1008.00
2023-02-23T11:25:26.642Z,1007.99
2023-02-23T11:26:26.671Z,1007.99
2023-02-23T11:27:26.618Z,1007.96
2023-02-23T11:28:26.813Z,1007.98
2023-02-23T11:29:26.707Z,1007.98
2023-02-23T11:30:27.044Z,1007.96
2023-02-23T11:31:27.866Z,1007.96
2023-02-23T11:32:26.827Z,1007.95
2023-02-23T11:33:26.619Z,1007.95
2023-02-23T11:34:26.714Z,1007.93
2023-02-23T11:35:26.603Z,1007.95
2023-02-23T11:36:26.594Z,1007.92
2023-02-23T11:37:26.597Z,1007.93
2023-02-23T11:38:26.601Z,1007.93
2023-02-23T11:39:26.613Z,1007.90
2023-02-23T11:40:26.612Z,1007.91
2023-02-23T11:41:28.012Z,1007.93
2023-02-23T11:42:26.594Z,1007.91
2023-02-23T11:43:26.588Z,1007.95
2023-02-23T11:44:26.577Z,1007.91
2023-02-23T11:45:27.320Z,1007.88
2023-02-23T11:46:26.755Z,1007.85
2023-02-23T11:47:26.585Z,1007.89
2023-02-23T11:48:26.929Z,1007.85
2023-02-23T11:49:26.835Z,1007.83
2023-02-23T11:50:26.878Z,1007.82
2023-02-23T11:51:26.531Z,1007.81
2023-02-23T11:52:26.660Z,1007.79
2023-02-23T11:53:29.521Z,1007.80
2023-02-23T11:54:26.570Z,1007.79
2023-02-23T11:55:26.619Z,1007.80
2023-02-23T11:56:26.536Z,1007.78
2023-02-23T11:57:26.573Z,1007.75
2023-02-23T11:58:26.540Z,1007.79
2023-02-23T11:59:26.543Z,1007.78
2023-02-23T12:00:26.551Z,1007.75
2023-02-23T12:01:26.521Z,1007.77
2023-02-23T12:02:26.511Z,1007.79
2023-02-23T12:03:26.523Z,1007.75
2023-02-23T12:04:29.639Z,1007.76
2023-02-23T12:05:26.522Z,1007.77
2023-02-23T12:06:26.573Z,1007.75
2023-02-23T12:07:26.507Z,1007.73
2023-02-23T12:08:26.547Z,1007.75
2023-02-23T12:09:26.494Z,1007.76
2023-02-23T12:10:26.593Z,1007.78
2023-02-23T12:11:26.532Z,1007.78
2023-02-23T12:12:26.494Z,1007.82
2023-02-23T12:13:26.907Z,1007.78
2023-02-23T12:16:03.936Z,1007.76
2023-02-23T12:16:59.564Z,1007.80
2023-02-23T12:17:59.601Z,1007.80
2023-02-23T12:18:59.574Z,1007.81
2023-02-23T12:19:59.531Z,1007.83
2023-02-23T12:20:59.558Z,1007.78
2023-02-23T12:21:59.699Z,1007.82
2023-02-23T12:22:59.555Z,1007.81
2023-02-23T12:23:59.524Z,1007.80
2023-02-23T12:24:59.524Z,1007.81
2023-02-23T12:25:59.538Z,1007.84
2023-02-23T12:26:59.604Z,1007.81
2023-02-23T12:28:07.596Z,1007.82
2023-02-23T12:28:59.618Z,1007.85
2023-02-23T12:29:59.511Z,1007.85
2023-02-23T12:30:59.595Z,1007.84
2023-02-23T12:31:59.707Z,1007.85
2023-02-23T12:32:59.494Z,1007.85
2023-02-23T12:33:59.531Z,1007.88
2023-02-23T12:35:01.162Z,1007.87
2023-02-23T12:35:59.509Z,1007.83
2023-02-23T12:36:59.520Z,1007.88
2023-02-23T12:37:59.532Z,1007.89
2023-02-23T12:38:59.487Z,1007.88
2023-02-23T12:39:59.477Z,1007.87
2023-02-23T12:40:59.483Z,1007.87
2023-02-23T12:41:59.482Z,1007.90
2023-02-23T12:42:59.539Z,1007.88
2023-02-23T12:43:59.483Z,1007.84
2023-02-23T12:44:59.549Z,1007.90
2023-02-23T12:45:59.513Z,1007.87
2023-02-23T12:46:59.446Z,1007.85
2023-02-23T12:47:59.453Z,1007.85
2023-02-23T12:48:59.474Z,1007.81
2023-02-23T12:49:59.523Z,1007.80
2023-02-23T12:50:59.477Z,1007.79
2023-02-23T12:51:59.431Z,1007.79
2023-02-23T12:52:59.444Z,1007.77
2023-02-23T12:54:00.724Z,1007.77
2023-02-23T12:54:59.431Z,1007.79
2023-02-23T12:55:59.431Z,1007.83
2023-02-23T12:56:59.484Z,1007.82
2023-02-23T12:57:59.420Z,1007.83
2023-02-23T12:58:59.432Z,1007.84
2023-02-23T12:59:59.575Z,1007.85
2023-02-23T13:00:59.433Z,1007.87
2023-02-23T13:01:59.407Z,1007.89
2023-02-23T13:02:59.425Z,1007.82
2023-02-23T13:03:59.533Z,1007.87
2023-02-23T13:04:59.394Z,1007.84
2023-02-23T13:05:59.401Z,1007.87
2023-02-23T13:06:59.406Z,1007.89
2023-02-23T13:08:12.544Z,1007.87
2023-02-23T13:08:59.392Z,1007.90
2023-02-23T13:09:59.464Z,1007.89
2023-02-23T13:10:59.445Z,1007.87
2023-02-23T13:11:59.396Z,1007.84
2023-02-23T13:12:59.498Z,1007.88
2023-02-23T13:13:59.380Z,1007.90
2023-02-23T13:14:59.398Z,1007.88
2023-02-23T13:15:59.364Z,1007.89
2023-02-23T13:16:59.524Z,1007.87
2023-02-23T13:17:59.362Z,1007.90
2023-02-23T13:18:59.354Z,1007.88
2023-02-23T13:19:59.370Z,1007.90
2023-02-23T13:20:59.363Z,1007.86
2023-02-23T13:21:59.369Z,1007.87
2023-02-23T13:22:59.358Z,1007.89
2023-02-23T13:23:59.347Z,1007.87
2023-02-23T13:24:59.369Z,1007.90
2023-02-23T13:25:59.355Z,1007.86
2023-02-23T13:26:59.341Z,1007.89
2023-02-23T13:27:59.332Z,1007.89
2023-02-23T13:28:59.346Z,1007.90
2023-02-23T13:29:59.368Z,1007.90
2023-02-23T13:30:59.442Z,1007.91
2023-02-23T13:31:59.450Z,1007.90
2023-02-23T13:32:59.306Z,1007.91
2023-02-23T13:33:59.303Z,1007.90
2023-02-23T13:34:59.305Z,1007.91
2023-02-23T13:35:59.314Z,1007.96
2023-02-23T13:36:59.292Z,1007.94
2023-02-23T13:37:59.304Z,1007.95
2023-02-23T13:39:01.306Z,1007.92
2023-02-23T13:39:59.283Z,1007.99
2023-02-23T13:40:59.370Z,1007.97
2023-02-23T13:41:59.305Z,1007.99
2023-02-23T13:42:59.304Z,1007.98
2023-02-23T13:43:59.301Z,1007.95
2023-02-23T13:44:59.265Z,1007.97
2023-02-23T13:45:59.331Z,1008.00
2023-02-23T13:46:59.283Z,1007.98
2023-02-23T13:47:59.265Z,1008.01
2023-02-23T13:49:02.071Z,1008.03
2023-02-23T13:49:59.264Z,1008.00
2023-02-23T13:50:59.249Z,1007.96
2023-02-23T13:51:59.262Z,1007.97
2023-02-23T13:52:59.264Z,1007.99
2023-02-23T13:53:59.230Z,1008.00
2023-02-23T13:54:59.235Z,1008.01
2023-02-23T13:55:59.302Z,1008.00
2023-02-23T13:56:59.246Z,1007.97
2023-02-23T13:57:59.419Z,1007.97
2023-02-23T13:58:59.235Z,1007.94
2023-02-23T13:59:59.348Z,1007.98
2023-02-23T14:00:59.742Z,1007.99
2023-02-23T14:01:59.446Z,1008.04
2023-02-23T14:02:59.484Z,1008.04
2023-02-23T14:03:59.350Z,1008.06
2023-02-23T14:04:59.200Z,1008.07
2023-02-23T14:05:59.295Z,1008.01
2023-02-23T14:06:59.207Z,1008.02
2023-02-23T14:07:59.220Z,1008.03
2023-02-23T14:08:59.223Z,1007.98
2023-02-23T14:09:59.183Z,1008.00
2023-02-23T14:10:59.450Z,1008.02
2023-02-23T14:11:59.177Z,1007.99
2023-02-23T14:12:59.176Z,1007.96
2023-02-23T14:13:59.246Z,1008.00
2023-02-23T14:14:59.275Z,1007.98
2023-02-23T14:15:59.316Z,1007.99
2023-02-23T14:16:59.150Z,1008.00
2023-02-23T14:17:59.195Z,1007.99
2023-02-23T14:18:59.255Z,1007.99
2023-02-23T14:19:59.176Z,1007.98
2023-02-23T14:20:59.137Z,1007.98
2023-02-23T14:21:59.150Z,1008.00
2023-02-23T14:22:59.171Z,1007.97
2023-02-23T14:23:59.166Z,1007.98
2023-02-23T14:24:59.130Z,1008.00
2023-02-23T14:25:59.160Z,1008.01
2023-02-23T14:26:59.135Z,1008.04
2023-02-23T14:27:59.140Z,1008.05
2023-02-23T14:28:59.128Z,1008.01
2023-02-23T14:29:59.413Z,1008.04
2023-02-23T14:30:59.184Z,1008.08
2023-02-23T14:31:59.215Z,1008.07
2023-02-23T14:33:00.322Z,1008.06
2023-02-23T14:33:59.121Z,1008.10
2023-02-23T14:34:59.103Z,1008.07
2023-02-23T14:35:59.111Z,1008.08
2023-02-23T14:36:59.112Z,1008.10
2023-02-23T14:37:59.160Z,1008.12
2023-02-23T14:38:59.124Z,1008.12
2023-02-23T14:39:59.135Z,1008.13
2023-02-23T14:40:59.163Z,1008.16
2023-02-23T14:41:59.241Z,1008.10
2023-02-23T14:44:32.101Z,1008.14
2023-02-23T14:45:34.728Z,1008.13
2023-02-23T14:46:32.213Z,1008.12
2023-02-23T14:47:32.159Z,1008.11
2023-02-23T14:48:53.196Z,1008.12
2023-02-23T14:49:32.072Z,1008.12
2023-02-23T14:50:32.096Z,1008.12
2023-02-23T14:51:32.440Z,1008.13
2023-02-23T14:52:32.077Z,1008.13
2023-02-23T14:53:32.101Z,1008.13
2023-02-23T14:54:32.087Z,1008.14
2023-02-23T14:55:32.046Z,1008.13
2023-02-23T14:56:43.489Z,1008.15
2023-02-23T14:57:32.074Z,1008.12
2023-02-23T14:58:32.053Z,1008.12
2023-02-23T14:59:32.042Z,1008.11
2023-02-23T15:00:32.030Z,1008.11
2023-02-23T15:01:32.175Z,1008.13
2023-02-23T15:02:32.054Z,1008.11
2023-02-23T15:03:32.039Z,1008.09
2023-02-23T15:04:32.067Z,1008.10
2023-02-23T15:05:32.008Z,1008.13
2023-02-23T15:06:32.009Z,1008.14
2023-02-23T15:07:32.021Z,1008.13
2023-02-23T15:08:32.018Z,1008.17
2023-02-23T15:09:32.005Z,1008.14
2023-02-23T15:10:32.003Z,1008.11
2023-02-23T15:11:31.985Z,1008.15
2023-02-23T15:12:32.021Z,1008.13
2023-02-23T15:13:31.992Z,1008.15
2023-02-23T15:14:31.996Z,1008.15
2023-02-23T15:15:31.972Z,1008.17
2023-02-23T15:16:32.104Z,1008.15
2023-02-23T15:17:32.048Z,1008.20
2023-02-23T15:18:31.980Z,1008.14
2023-02-23T15:19:31.981Z,1008.20
2023-02-23T15:20:31.982Z,1008.15
2023-02-23T15:21:31.999Z,1008.14
2023-02-23T15:22:31.950Z,1008.17
2023-02-23T15:23:31.977Z,1008.17
2023-02-23T15:24:31.963Z,1008.20
2023-02-23T15:25:31.938Z,1008.18
2023-02-23T15:26:32.106Z,1008.17
2023-02-23T15:27:31.977Z,1008.19
2023-02-23T15:28:31.937Z,1008.22
2023-02-23T15:29:32.912Z,1008.20
2023-02-23T15:30:31.919Z,1008.17
2023-02-23T15:31:32.024Z,1008.20
2023-02-23T15:32:32.307Z,1008.20
2023-02-23T15:33:31.937Z,1008.20
2023-02-23T15:34:31.936Z,1008.20
2023-02-23T15:35:31.914Z,1008.17
2023-02-23T15:36:31.901Z,1008.22
2023-02-23T15:37:31.891Z,1008.23
2023-02-23T15:38:42.944Z,1008.23
2023-02-23T15:39:31.904Z,1008.24
2023-02-23T15:40:31.899Z,1008.23
2023-02-23T15:41:31.888Z,1008.26
2023-02-23T15:42:31.886Z,1008.27
2023-02-23T15:43:31.885Z,1008.28
2023-02-23T15:44:38.894Z,1008.25
2023-02-23T15:45:31.928Z,1008.25
2023-02-23T15:46:31.905Z,1008.25
2023-02-23T15:47:31.876Z,1008.23
2023-02-23T15:48:31.860Z,1008.25
2023-02-23T15:49:31.940Z,1008.21
2023-02-23T15:50:37.113Z,1008.21
2023-02-23T15:51:31.912Z,1008.16
2023-02-23T15:52:31.866Z,1008.20
2023-02-23T15:53:31.856Z,1008.16
2023-02-23T15:54:31.868Z,1008.12
2023-02-23T15:55:31.860Z,1008.10
2023-02-23T15:56:31.833Z,1008.11
2023-02-23T15:57:31.847Z,1008.07
2023-02-23T15:58:31.899Z,1008.04
2023-02-23T15:59:31.825Z,1008.01
2023-02-23T16:00:31.878Z,1008.04
2023-02-23T16:12:36.340Z,1008.17
2023-02-23T16:13:36.299Z,1008.15
2023-02-23T16:14:36.290Z,1008.15
2023-02-23T16:15:36.293Z,1008.16
2023-02-23T16:16:36.270Z,1008.20
2023-02-23T16:17:36.255Z,1008.19
2023-02-23T16:18:36.282Z,1008.16
2023-02-23T16:19:36.271Z,1008.17
2023-02-23T16:20:36.256Z,1008.17
2023-02-23T16:21:36.229Z,1008.18
2023-02-23T16:22:36.239Z,1008.17
2023-02-23T16:23:36.246Z,1008.17
2023-02-23T16:24:36.235Z,1008.19
2023-02-23T16:25:36.215Z,1008.17
2023-02-23T16:26:36.221Z,1008.16
2023-02-23T16:27:36.216Z,1008.14
2023-02-23T16:28:36.231Z,1008.14
2023-02-23T16:29:36.230Z,1008.16
2023-02-23T16:30:36.201Z,1008.16
2023-02-23T16:31:36.366Z,1008.15
2023-02-23T16:32:36.379Z,1008.17
2023-02-23T16:33:36.189Z,1008.14
2023-02-23T16:34:36.193Z,1008.13
2023-02-23T16:35:36.180Z,1008.14
2023-02-23T16:36:36.169Z,1008.14
2023-02-23T16:37:36.173Z,1008.15
2023-02-23T16:38:36.184Z,1008.15
2023-02-23T16:39:36.176Z,1008.10
2023-02-23T16:40:36.153Z,1008.12
2023-02-23T16:41:36.166Z,1008.17
2023-02-23T16:42:36.164Z,1008.12
2023-02-23T16:43:36.171Z,1008.15
2023-02-23T16:44:43.563Z,1008.17
2023-02-23T16:45:36.231Z,1008.17
2023-02-23T16:46:36.148Z,1008.19
2023-02-23T16:47:36.188Z,1008.18
2023-02-23T16:48:36.145Z,1008.20